Xinyang, China
Current Conditions -  °F | °C
As of 9:00 AM on Saturday 29 Nov 2014 (Local Time) from ZHHH Reporting Station
Light Rain Light Rain  
Wind Chill: 50°   Ceiling: 4000
Heat Index: 50°   Visibility: 0.93mi
Dew Point: 48°   Wind: 11mph
Humidity: 94%   Direction: 70°ENE
Pressure: 29.97"   Gusts: NA
Location:  32.13°N, 114.07°E
Report Text: ZHHH 290100Z 07005MPS 1500 -RA BR SCT006 FEW026TCUOVC04010/09 Q1015 BECMG TL0140 1200 -RA BR
Loading
Personal Weather Stations






























Interactive Weather Map New forecast layout! Learn more

10-Day Weather Forecast

Advertisements
Track Severe Weather on mobile